createdAt,value
2019-03-16T00:01:08.993Z,3.17
2019-03-16T00:03:41.324Z,4.53
2019-03-16T00:06:13.704Z,2.90
2019-03-16T00:08:45.801Z,4.53
2019-03-16T00:11:36.629Z,3.27
2019-03-16T00:22:09.775Z,3.77
2019-03-16T00:24:43.926Z,4.10
2019-03-16T00:27:15.995Z,4.20
2019-03-16T00:29:47.993Z,3.57
2019-03-16T00:32:19.738Z,3.93
2019-03-16T00:34:51.727Z,3.67
2019-03-16T00:37:22.922Z,4.07
2019-03-16T00:39:54.809Z,4.42
2019-03-16T00:42:27.756Z,4.60
2019-03-16T00:45:00.073Z,5.60
2019-03-16T00:47:31.916Z,4.10
2019-03-16T00:50:03.949Z,6.85
2019-03-16T00:52:36.648Z,6.83
2019-03-16T00:55:09.557Z,3.50
2019-03-16T00:57:40.920Z,5.13
2019-03-16T01:00:12.753Z,3.80
2019-03-16T01:02:44.068Z,3.30
2019-03-16T01:05:16.172Z,7.97
2019-03-16T01:07:47.468Z,3.90
2019-03-16T01:10:18.776Z,5.28
2019-03-16T01:12:51.042Z,7.33
2019-03-16T01:15:22.874Z,4.93
2019-03-16T01:17:53.950Z,6.70
2019-03-16T01:20:24.985Z,4.70
2019-03-16T01:22:57.033Z,7.00
2019-03-16T01:25:28.688Z,5.15
2019-03-16T01:28:00.101Z,3.57
2019-03-16T01:30:32.083Z,4.70
2019-03-16T01:33:04.035Z,5.57
2019-03-16T01:35:35.348Z,7.42
2019-03-16T01:38:06.686Z,6.47
2019-03-16T01:40:38.019Z,4.28
2019-03-16T01:43:10.114Z,8.50
2019-03-16T01:45:41.662Z,7.42
2019-03-16T01:48:18.421Z,8.57
2019-03-16T01:50:49.928Z,5.57
2019-03-16T01:53:21.290Z,6.63
2019-03-16T01:55:52.635Z,6.83
2019-03-16T01:58:24.198Z,7.00
2019-03-16T02:00:55.861Z,4.65
2019-03-16T02:03:26.865Z,7.30
2019-03-16T02:05:59.471Z,6.20
2019-03-16T02:08:30.713Z,6.97
2019-03-16T02:11:02.040Z,8.53
2019-03-16T02:13:32.839Z,8.95
2019-03-16T02:16:10.811Z,4.30
2019-03-16T02:18:38.583Z,5.60
2019-03-16T02:21:10.522Z,4.42
2019-03-16T02:23:41.860Z,5.35
2019-03-16T02:26:13.543Z,5.90
2019-03-16T02:28:45.149Z,6.72
2019-03-16T02:31:16.593Z,10.78
2019-03-16T02:33:48.933Z,7.12
2019-03-16T02:36:22.831Z,5.47
2019-03-16T02:38:55.320Z,5.50
2019-03-16T02:41:27.422Z,9.70
2019-03-16T02:43:58.437Z,6.55
2019-03-16T02:46:29.751Z,9.27
2019-03-16T02:49:01.062Z,6.60
2019-03-16T02:51:32.673Z,7.75
2019-03-16T02:54:04.268Z,10.53
2019-03-16T02:56:36.505Z,12.20
2019-03-16T02:59:07.484Z,9.63
2019-03-16T03:01:39.268Z,9.45
2019-03-16T03:04:10.587Z,9.50
2019-03-16T03:06:44.072Z,13.25
2019-03-16T03:09:16.504Z,9.65
2019-03-16T03:11:48.302Z,16.03
2019-03-16T03:14:20.217Z,13.32
2019-03-16T03:19:32.391Z,9.43
2019-03-16T03:32:37.610Z,13.30
2019-03-16T03:35:09.141Z,13.30
2019-03-16T03:37:41.092Z,12.03
2019-03-16T03:40:13.318Z,16.50
2019-03-16T03:42:45.840Z,15.17
2019-03-16T03:45:17.142Z,16.57
2019-03-16T03:47:49.075Z,12.45
2019-03-16T03:50:20.636Z,14.53
2019-03-16T03:52:52.697Z,10.20
2019-03-16T04:10:42.954Z,10.20
2019-03-16T04:13:14.816Z,10.63
2019-03-16T04:15:46.951Z,13.37
2019-03-16T04:18:19.112Z,12.00
2019-03-16T04:20:50.502Z,10.67
2019-03-16T04:23:21.834Z,14.23
2019-03-16T04:25:53.478Z,16.37
2019-03-16T04:28:24.775Z,10.17
2019-03-16T04:30:56.370Z,12.70
2019-03-16T04:33:28.167Z,15.67
2019-03-16T04:35:59.720Z,9.50
2019-03-16T04:38:31.256Z,8.70
2019-03-16T04:41:02.634Z,11.40
2019-03-16T04:43:34.543Z,8.20
2019-03-16T04:48:48.894Z,9.60
2019-03-16T04:51:20.156Z,20.40
2019-03-16T04:54:04.992Z,10.83
2019-03-16T05:02:01.776Z,6.07
2019-03-16T05:07:09.705Z,9.80
2019-03-16T05:09:43.103Z,7.07
2019-03-16T05:12:15.009Z,10.43
2019-03-16T05:14:46.587Z,10.80
2019-03-16T05:17:18.506Z,10.67
2019-03-16T05:19:51.735Z,6.72
2019-03-16T05:22:40.853Z,11.00
2019-03-16T05:25:12.424Z,12.13
2019-03-16T05:27:44.662Z,12.53
2019-03-16T05:30:30.734Z,12.93
2019-03-16T05:33:02.614Z,10.10
2019-03-16T05:35:36.789Z,13.53
2019-03-16T05:38:08.340Z,15.13
2019-03-16T05:40:59.448Z,9.10
2019-03-16T05:43:42.901Z,6.57
2019-03-16T05:46:24.761Z,11.25
2019-03-16T05:48:56.378Z,12.20
2019-03-16T05:51:36.634Z,10.20
2019-03-16T05:54:08.507Z,7.43
2019-03-16T05:56:39.474Z,21.83
2019-03-16T05:59:11.333Z,11.33
2019-03-16T06:01:42.659Z,11.90
2019-03-16T06:04:14.481Z,7.37
2019-03-16T06:06:46.252Z,10.73
2019-03-16T06:09:18.515Z,10.50
2019-03-16T06:11:54.104Z,5.77
2019-03-16T06:14:25.649Z,6.50
2019-03-16T06:16:56.976Z,9.13
2019-03-16T06:19:28.529Z,10.93
2019-03-16T06:22:00.110Z,8.03
2019-03-16T06:24:31.315Z,8.97
2019-03-16T06:27:02.890Z,11.90
2019-03-16T06:29:34.132Z,10.70
2019-03-16T06:32:06.008Z,10.07
2019-03-16T06:34:38.137Z,6.80
2019-03-16T06:37:11.590Z,9.28
2019-03-16T06:39:43.662Z,8.37
2019-03-16T06:42:16.679Z,8.90
2019-03-16T06:44:48.445Z,19.50
2019-03-16T06:47:23.065Z,8.80
2019-03-16T06:49:53.323Z,8.13
2019-03-16T06:52:26.563Z,5.27
2019-03-16T06:54:58.982Z,13.10
2019-03-16T06:57:30.862Z,6.17
2019-03-16T07:00:02.330Z,5.80
2019-03-16T07:02:34.945Z,8.53
2019-03-16T07:05:07.545Z,8.27
2019-03-16T07:07:41.914Z,10.50
2019-03-16T07:10:13.739Z,5.90
2019-03-16T07:12:45.242Z,7.47
2019-03-16T07:15:16.216Z,6.00
2019-03-16T07:17:48.252Z,8.20
2019-03-16T07:20:19.409Z,10.57
2019-03-16T07:22:50.702Z,10.43
2019-03-16T07:25:22.296Z,4.17
2019-03-16T07:27:54.290Z,6.33
2019-03-16T07:30:26.179Z,12.43
2019-03-16T07:32:57.203Z,6.40
2019-03-16T07:35:28.512Z,7.23
2019-03-16T07:38:00.767Z,12.45
2019-03-16T07:40:33.055Z,5.97
2019-03-16T07:43:05.467Z,11.40
2019-03-16T07:45:37.547Z,6.83
2019-03-16T07:48:08.960Z,8.20
2019-03-16T07:50:41.763Z,8.30
2019-03-16T07:53:13.223Z,7.17
2019-03-16T07:55:45.879Z,9.70
2019-03-16T07:58:16.903Z,6.57
2019-03-16T08:00:48.823Z,10.23
2019-03-16T08:03:20.487Z,8.27
2019-03-16T08:05:52.106Z,5.63
2019-03-16T08:08:23.650Z,7.20
2019-03-16T08:10:54.645Z,6.80
2019-03-16T08:13:25.957Z,4.60
2019-03-16T08:15:57.585Z,3.23
2019-03-16T08:18:29.186Z,4.20
2019-03-16T08:21:00.728Z,8.17
2019-03-16T08:23:32.546Z,4.10
2019-03-16T08:26:04.114Z,3.73
2019-03-16T08:28:36.102Z,3.60
2019-03-16T08:31:08.010Z,7.73
2019-03-16T08:33:39.714Z,3.20
2019-03-16T08:36:10.970Z,8.17
2019-03-16T08:38:42.849Z,6.13
2019-03-16T08:41:14.686Z,7.47
2019-03-16T08:43:46.587Z,3.33
2019-03-16T08:46:18.203Z,5.20
2019-03-16T08:48:49.523Z,3.80
2019-03-16T08:51:21.091Z,3.43
2019-03-16T08:53:53.335Z,5.30
2019-03-16T08:56:24.927Z,2.23
2019-03-16T08:58:56.297Z,1.97
2019-03-16T09:01:28.357Z,3.47
2019-03-16T09:04:00.254Z,1.80
2019-03-16T09:06:31.946Z,3.50
2019-03-16T09:09:04.571Z,3.53
2019-03-16T09:11:35.848Z,3.90
2019-03-16T09:14:07.746Z,2.07
2019-03-16T09:16:39.612Z,3.40
2019-03-16T09:19:11.163Z,1.97
2019-03-16T09:21:42.849Z,3.77
2019-03-16T09:24:15.061Z,3.33
2019-03-16T09:26:46.634Z,2.13
2019-03-16T09:29:17.468Z,1.50
2019-03-16T09:31:49.360Z,2.60
2019-03-16T09:34:20.600Z,1.37
2019-03-16T09:36:53.395Z,5.70
2019-03-16T09:39:24.698Z,1.70
2019-03-16T09:41:56.597Z,2.57
2019-03-16T09:44:27.318Z,4.23
2019-03-16T09:46:58.902Z,1.00
2019-03-16T09:49:30.373Z,1.17
2019-03-16T09:52:02.022Z,0.90
2019-03-16T09:54:34.098Z,6.33
2019-03-16T09:57:05.948Z,1.17
2019-03-16T09:59:37.849Z,0.80
2019-03-16T10:02:09.455Z,1.80
2019-03-16T10:04:41.163Z,1.20
2019-03-16T10:07:12.179Z,1.77
2019-03-16T10:09:44.074Z,1.60
2019-03-16T10:12:15.074Z,1.37
2019-03-16T10:14:46.634Z,1.07
2019-03-16T10:17:18.704Z,1.47
2019-03-16T10:19:50.461Z,1.00
2019-03-16T10:22:22.105Z,0.90
2019-03-16T10:24:53.682Z,0.97
2019-03-16T10:27:25.338Z,0.80
2019-03-16T10:29:56.976Z,1.10
2019-03-16T10:32:28.605Z,0.87
2019-03-16T10:35:00.508Z,2.73
2019-03-16T10:37:32.058Z,0.47
2019-03-16T10:40:03.339Z,0.70
2019-03-16T10:42:35.083Z,1.80
2019-03-16T10:45:06.766Z,4.97
2019-03-16T10:47:39.062Z,1.17
2019-03-16T10:50:11.029Z,1.20
2019-03-16T10:52:42.633Z,0.90
2019-03-16T10:55:14.250Z,0.50
2019-03-16T10:57:45.522Z,0.80
2019-03-16T11:00:16.917Z,0.70
2019-03-16T11:02:48.453Z,0.60
2019-03-16T11:05:20.761Z,0.73
2019-03-16T11:07:52.949Z,0.60
2019-03-16T11:10:35.539Z,0.60
2019-03-16T11:13:07.091Z,0.67
2019-03-16T11:15:38.451Z,3.53
2019-03-16T11:18:09.585Z,0.57
2019-03-16T11:20:41.404Z,0.60
2019-03-16T11:23:14.430Z,0.70
2019-03-16T11:25:45.735Z,0.80
2019-03-16T11:28:17.444Z,1.13
2019-03-16T11:30:49.653Z,0.30
2019-03-16T11:33:21.115Z,0.40
2019-03-16T11:35:53.038Z,0.43
2019-03-16T11:38:24.667Z,1.90
2019-03-16T11:40:56.282Z,0.50
2019-03-16T11:43:28.194Z,0.70
2019-03-16T11:46:00.107Z,2.30
2019-03-16T11:48:31.726Z,0.30
2019-03-16T11:51:03.038Z,0.30
2019-03-16T11:53:35.379Z,0.40
2019-03-16T11:56:17.558Z,0.80
2019-03-16T11:58:40.261Z,0.30
2019-03-16T12:01:12.275Z,0.40
2019-03-16T12:03:43.883Z,0.20
2019-03-16T12:06:15.415Z,0.20
2019-03-16T12:08:47.893Z,0.30
2019-03-16T12:11:20.032Z,0.60
2019-03-16T12:13:51.625Z,0.40
2019-03-16T12:16:22.944Z,0.30
2019-03-16T12:18:54.897Z,0.40
2019-03-16T12:21:26.428Z,0.37
2019-03-16T12:23:58.092Z,0.40
2019-03-16T12:26:29.366Z,0.50
2019-03-16T12:29:00.659Z,0.40
2019-03-16T12:31:32.633Z,0.47
2019-03-16T12:34:04.201Z,0.40
2019-03-16T12:36:36.007Z,0.33
2019-03-16T12:39:09.825Z,0.40
2019-03-16T12:41:41.775Z,0.30
2019-03-16T12:44:13.103Z,0.43
2019-03-16T12:46:44.455Z,0.40
2019-03-16T12:49:15.883Z,0.63
2019-03-16T12:51:47.461Z,0.37
2019-03-16T12:54:18.740Z,0.40
2019-03-16T12:56:50.367Z,0.50
2019-03-16T12:59:22.795Z,0.60
2019-03-16T13:01:54.729Z,0.47
2019-03-16T13:04:26.345Z,0.30
2019-03-16T13:06:57.999Z,0.40
2019-03-16T13:09:29.945Z,1.27
2019-03-16T13:12:01.829Z,1.50
2019-03-16T13:14:32.849Z,1.17
2019-03-16T13:17:03.824Z,0.57
2019-03-16T13:19:35.555Z,0.40
2019-03-16T13:22:06.881Z,0.73
2019-03-16T13:24:38.452Z,1.53
2019-03-16T13:27:10.301Z,0.50
2019-03-16T13:29:42.328Z,0.93
2019-03-16T13:32:14.258Z,0.63
2019-03-16T13:34:46.135Z,0.70
2019-03-16T13:37:17.254Z,4.00
2019-03-16T13:39:48.846Z,0.70
2019-03-16T13:42:20.128Z,0.93
2019-03-16T13:44:52.050Z,1.27
2019-03-16T13:47:23.939Z,0.60
2019-03-16T13:49:55.589Z,1.63
2019-03-16T13:52:27.160Z,0.60
2019-03-16T13:54:58.796Z,0.67
2019-03-16T13:57:30.775Z,2.50
2019-03-16T14:00:11.245Z,0.60
2019-03-16T14:02:36.141Z,0.50
2019-03-16T14:05:07.938Z,1.00
2019-03-16T14:07:39.170Z,0.50
2019-03-16T14:10:15.047Z,0.43
2019-03-16T14:12:46.333Z,0.83
2019-03-16T14:15:18.006Z,1.00
2019-03-16T14:17:49.602Z,1.53
2019-03-16T14:20:21.437Z,0.60
2019-03-16T14:22:53.128Z,0.50
2019-03-16T14:25:27.798Z,1.13
2019-03-16T14:27:59.693Z,0.60
2019-03-16T14:30:40.898Z,0.63
2019-03-16T14:33:05.697Z,0.60
2019-03-16T14:35:37.050Z,1.00
2019-03-16T14:38:09.055Z,0.60
2019-03-16T14:40:40.486Z,2.30
2019-03-16T14:43:11.738Z,1.00
2019-03-16T14:45:42.923Z,0.80
2019-03-16T14:48:15.283Z,0.67
2019-03-16T14:50:47.336Z,0.87
2019-03-16T14:53:18.713Z,0.70
2019-03-16T14:55:50.348Z,0.60
2019-03-16T14:58:22.249Z,0.50
2019-03-16T15:00:53.284Z,0.73
2019-03-16T15:03:25.069Z,1.60
2019-03-16T15:06:00.088Z,0.60
2019-03-16T15:08:31.411Z,0.80
2019-03-16T15:11:03.987Z,1.57
2019-03-16T15:13:35.706Z,0.50
2019-03-16T15:16:07.600Z,0.60
2019-03-16T15:18:39.866Z,0.90
2019-03-16T15:21:12.107Z,0.70
2019-03-16T15:23:44.048Z,1.60
2019-03-16T15:26:15.041Z,0.90
2019-03-16T15:28:46.063Z,0.70
2019-03-16T15:31:17.842Z,0.93
2019-03-16T15:33:49.115Z,1.00
2019-03-16T15:36:21.022Z,0.53
2019-03-16T15:38:52.628Z,0.60
2019-03-16T15:41:24.646Z,0.60
2019-03-16T15:43:55.952Z,0.60
2019-03-16T15:46:27.386Z,0.60
2019-03-16T15:48:58.422Z,0.83
2019-03-16T15:51:29.417Z,0.80
2019-03-16T15:54:01.012Z,0.60
2019-03-16T15:56:32.462Z,0.70
2019-03-16T15:59:03.702Z,0.80
2019-03-16T16:01:35.238Z,0.80
2019-03-16T16:04:07.298Z,1.07
2019-03-16T16:06:38.887Z,1.90
2019-03-16T16:09:10.765Z,0.90
2019-03-16T16:11:41.911Z,2.10
2019-03-16T16:14:13.510Z,0.80
2019-03-16T16:16:49.039Z,6.53
2019-03-16T16:19:23.204Z,0.80
2019-03-16T16:21:54.874Z,2.77
2019-03-16T16:24:26.783Z,0.70
2019-03-16T16:26:58.095Z,1.00
2019-03-16T16:29:29.707Z,1.20
2019-03-16T16:32:01.058Z,1.17
2019-03-16T16:34:33.454Z,1.10
2019-03-16T16:37:04.754Z,1.20
2019-03-16T16:39:36.853Z,0.97
2019-03-16T16:42:09.573Z,1.00
2019-03-16T16:44:41.186Z,1.33
2019-03-16T16:47:16.185Z,1.10
2019-03-16T16:49:50.560Z,0.90
2019-03-16T16:52:22.582Z,1.47
2019-03-16T16:54:54.162Z,1.10
2019-03-16T16:57:25.858Z,0.83
2019-03-16T16:59:58.872Z,0.93
2019-03-16T17:02:30.657Z,1.30
2019-03-16T17:05:06.583Z,1.23
2019-03-16T17:07:37.912Z,1.10
2019-03-16T17:10:11.319Z,1.20
2019-03-16T17:12:42.561Z,0.93
2019-03-16T17:15:14.663Z,1.53
2019-03-16T17:17:46.324Z,0.97
2019-03-16T17:20:18.036Z,0.90
2019-03-16T17:22:49.716Z,44.57
2019-03-16T17:25:22.012Z,2.60
2019-03-16T17:27:54.515Z,2.13
2019-03-16T17:30:26.226Z,1.40
2019-03-16T17:32:57.645Z,1.80
2019-03-16T17:35:29.009Z,1.43
2019-03-16T17:38:00.800Z,2.30
2019-03-16T17:40:32.205Z,1.93
2019-03-16T17:43:03.545Z,1.60
2019-03-16T17:45:34.895Z,2.50
2019-03-16T17:48:05.955Z,1.50
2019-03-16T17:50:37.536Z,1.30
2019-03-16T17:53:08.980Z,1.63
2019-03-16T17:55:40.023Z,2.43
2019-03-16T17:58:11.324Z,1.70
2019-03-16T18:00:43.115Z,1.50
2019-03-16T18:03:15.092Z,3.10
2019-03-16T18:05:46.954Z,1.70
2019-03-16T18:08:18.892Z,1.63
2019-03-16T18:10:50.902Z,1.90
2019-03-16T18:13:22.761Z,1.60
2019-03-16T18:15:54.628Z,1.67
2019-03-16T18:18:26.647Z,2.23
2019-03-16T18:20:58.370Z,1.90
2019-03-16T18:23:29.725Z,5.87
2019-03-16T18:26:01.225Z,1.70
2019-03-16T18:28:32.992Z,1.40
2019-03-16T18:31:05.025Z,0.97
2019-03-16T18:33:50.546Z,1.73
2019-03-16T18:36:22.414Z,1.03
2019-03-16T18:38:54.359Z,1.30
2019-03-16T18:41:26.324Z,3.23
2019-03-16T18:43:57.940Z,1.30
2019-03-16T18:46:29.731Z,2.93
2019-03-16T18:49:01.834Z,1.17
2019-03-16T18:51:32.555Z,2.73
2019-03-16T18:54:04.778Z,1.20
2019-03-16T18:56:36.603Z,1.10
2019-03-16T18:59:09.274Z,1.30
2019-03-16T19:01:41.642Z,1.37
2019-03-16T19:04:13.376Z,2.00
2019-03-16T19:06:45.000Z,1.20
2019-03-16T19:09:17.069Z,1.10
2019-03-16T19:11:48.033Z,2.20
2019-03-16T19:14:19.759Z,10.63
2019-03-16T19:16:51.569Z,16.97
2019-03-16T19:19:23.763Z,16.63
2019-03-16T19:21:55.673Z,12.13
2019-03-16T19:24:26.814Z,7.57
2019-03-16T19:26:59.301Z,9.27
2019-03-16T19:29:30.819Z,3.30
2019-03-16T19:32:02.709Z,3.40
2019-03-16T19:34:34.533Z,3.00
2019-03-16T19:37:06.747Z,2.83
2019-03-16T19:39:39.364Z,3.33
2019-03-16T19:42:11.300Z,3.00
2019-03-16T19:44:43.295Z,3.00
2019-03-16T19:47:14.985Z,3.40
2019-03-16T19:49:46.720Z,3.57
2019-03-16T19:52:17.868Z,3.23
2019-03-16T19:54:49.425Z,3.23
2019-03-16T19:57:20.919Z,4.33
2019-03-16T19:59:52.868Z,4.70
2019-03-16T20:02:24.201Z,3.43
2019-03-16T20:04:56.340Z,3.53
2019-03-16T20:07:28.318Z,3.37
2019-03-16T20:10:00.503Z,2.40
2019-03-16T20:12:32.366Z,3.70
2019-03-16T20:15:04.764Z,2.90
2019-03-16T20:17:36.895Z,5.27
2019-03-16T20:20:09.307Z,3.70
2019-03-16T20:22:41.397Z,4.47
2019-03-16T20:25:12.865Z,4.80
2019-03-16T20:27:44.866Z,4.97
2019-03-16T20:30:16.057Z,5.87
2019-03-16T20:32:50.328Z,4.50
2019-03-16T20:35:22.053Z,4.60
2019-03-16T20:37:53.350Z,4.17
2019-03-16T20:40:24.895Z,3.87
2019-03-16T20:42:56.245Z,3.67
2019-03-16T20:45:28.819Z,4.90
2019-03-16T20:47:59.944Z,3.40
2019-03-16T20:50:31.929Z,2.90
2019-03-16T20:53:03.856Z,3.43
2019-03-16T20:55:35.339Z,3.07
2019-03-16T20:58:06.805Z,2.93
2019-03-16T21:00:38.374Z,3.83
2019-03-16T21:03:16.099Z,2.98
2019-03-16T21:05:44.596Z,2.52
2019-03-16T21:08:16.490Z,2.90
2019-03-16T21:10:48.130Z,3.87
2019-03-16T21:13:20.221Z,2.77
2019-03-16T21:15:51.713Z,2.70
2019-03-16T21:18:23.813Z,2.98
2019-03-16T21:20:54.603Z,3.10
2019-03-16T21:23:25.792Z,2.80
2019-03-16T21:25:57.913Z,3.40
2019-03-16T21:28:29.919Z,3.33
2019-03-16T21:31:02.209Z,3.00
2019-03-16T21:33:34.214Z,3.07
2019-03-16T21:36:06.408Z,3.20
2019-03-16T21:38:38.186Z,2.90
2019-03-16T21:41:09.032Z,3.10
2019-03-16T21:43:40.967Z,2.97
2019-03-16T21:46:12.263Z,3.37
2019-03-16T21:48:43.862Z,3.07
2019-03-16T21:51:15.800Z,2.83
2019-03-16T21:53:47.497Z,2.97
2019-03-16T21:56:19.218Z,11.43
2019-03-16T21:58:51.148Z,11.30
2019-03-16T22:01:23.164Z,10.93
2019-03-16T22:03:55.863Z,8.35
2019-03-16T22:06:27.570Z,5.70
2019-03-16T22:08:59.210Z,3.67
2019-03-16T22:11:31.752Z,3.40
2019-03-16T22:14:04.560Z,3.40
2019-03-16T22:16:37.398Z,3.07
2019-03-16T22:19:08.506Z,3.37
2019-03-16T22:21:39.524Z,3.63
2019-03-16T22:24:12.580Z,3.07
2019-03-16T22:26:45.281Z,3.60
2019-03-16T22:29:18.194Z,4.30
2019-03-16T22:31:50.054Z,3.97
2019-03-16T22:34:22.252Z,4.20
2019-03-16T22:36:54.495Z,7.57
2019-03-16T22:39:26.811Z,5.10
2019-03-16T22:41:58.181Z,5.20
2019-03-16T22:44:30.402Z,3.10
2019-03-16T22:47:02.843Z,3.60
2019-03-16T22:49:34.025Z,3.13
2019-03-16T22:52:05.606Z,3.20
2019-03-16T22:54:37.229Z,2.93
2019-03-16T22:57:12.305Z,2.43
2019-03-16T22:59:44.183Z,5.13
2019-03-16T23:02:16.769Z,2.87
2019-03-16T23:04:48.508Z,2.53
2019-03-16T23:07:19.879Z,2.50
2019-03-16T23:09:51.185Z,2.37
2019-03-16T23:12:22.930Z,1.97
2019-03-16T23:14:54.725Z,2.40
2019-03-16T23:17:29.741Z,2.27
2019-03-16T23:20:24.941Z,2.50
2019-03-16T23:22:56.424Z,2.00
2019-03-16T23:25:27.847Z,2.17
2019-03-16T23:28:04.782Z,2.23
2019-03-16T23:30:36.489Z,2.53
2019-03-16T23:33:11.389Z,2.53
2019-03-16T23:35:53.594Z,2.30
2019-03-16T23:38:31.830Z,2.40
2019-03-16T23:41:11.059Z,2.80
2019-03-16T23:43:42.864Z,2.33
2019-03-16T23:46:20.367Z,2.23
2019-03-16T23:48:54.551Z,2.17
2019-03-16T23:51:52.406Z,2.30
2019-03-16T23:54:24.423Z,2.03
2019-03-16T23:57:03.787Z,2.30
2019-03-16T23:59:54.553Z,3.90
